sensor_id;sensor_type;location;lat;lon;timestamp;P1;durP1;ratioP1;P2;durP2;ratioP2
65706;SDS011;52423;43.512;5.220;2022-10-30T00:01:58;8.65;;;3.35;;
65706;SDS011;52423;43.512;5.220;2022-10-30T00:04:24;10.85;;;3.05;;
65706;SDS011;52423;43.512;5.220;2022-10-30T00:06:49;9.30;;;3.45;;
65706;SDS011;52423;43.512;5.220;2022-10-30T00:09:14;5.45;;;2.97;;
65706;SDS011;52423;43.512;5.220;2022-10-30T00:11:40;6.25;;;2.97;;
65706;SDS011;52423;43.512;5.220;2022-10-30T00:14:05;8.30;;;3.25;;
65706;SDS011;52423;43.512;5.220;2022-10-30T00:16:31;6.30;;;3.10;;
65706;SDS011;52423;43.512;5.220;2022-10-30T00:18:57;5.75;;;2.72;;
65706;SDS011;52423;43.512;5.220;2022-10-30T00:21:22;6.75;;;2.72;;
65706;SDS011;52423;43.512;5.220;2022-10-30T00:23:48;4.22;;;3.17;;
65706;SDS011;52423;43.512;5.220;2022-10-30T00:26:15;7.43;;;3.35;;
65706;SDS011;52423;43.512;5.220;2022-10-30T00:28:41;8.27;;;3.35;;
65706;SDS011;52423;43.512;5.220;2022-10-30T00:31:06;5.88;;;2.92;;
65706;SDS011;52423;43.512;5.220;2022-10-30T00:33:32;9.50;;;2.60;;
65706;SDS011;52423;43.512;5.220;2022-10-30T00:35:57;7.15;;;3.03;;
65706;SDS011;52423;43.512;5.220;2022-10-30T00:38:23;5.75;;;2.88;;
65706;SDS011;52423;43.512;5.220;2022-10-30T00:40:48;6.68;;;2.63;;
65706;SDS011;52423;43.512;5.220;2022-10-30T00:43:27;11.75;;;3.17;;
65706;SDS011;52423;43.512;5.220;2022-10-30T00:46:42;10.40;;;3.10;;
65706;SDS011;52423;43.512;5.220;2022-10-30T00:48:53;14.52;;;3.33;;
65706;SDS011;52423;43.512;5.220;2022-10-30T00:51:28;7.35;;;2.88;;
65706;SDS011;52423;43.512;5.220;2022-10-30T00:53:57;5.00;;;2.97;;
65706;SDS011;52423;43.512;5.220;2022-10-30T00:56:24;6.65;;;2.65;;
65706;SDS011;52423;43.512;5.220;2022-10-30T00:59:01;13.05;;;3.05;;
65706;SDS011;52423;43.512;5.220;2022-10-30T01:01:31;5.80;;;3.00;;
65706;SDS011;52423;43.512;5.220;2022-10-30T01:04:00;10.38;;;3.15;;
65706;SDS011;52423;43.512;5.220;2022-10-30T01:06:27;5.07;;;2.88;;
65706;SDS011;52423;43.512;5.220;2022-10-30T01:08:53;6.15;;;2.83;;
65706;SDS011;52423;43.512;5.220;2022-10-30T01:11:19;8.50;;;2.63;;
65706;SDS011;52423;43.512;5.220;2022-10-30T01:13:45;9.00;;;3.40;;
65706;SDS011;52423;43.512;5.220;2022-10-30T01:18:47;6.20;;;2.30;;
65706;SDS011;52423;43.512;5.220;2022-10-30T01:26:56;7.57;;;2.60;;
65706;SDS011;52423;43.512;5.220;2022-10-30T01:29:29;3.80;;;2.30;;
65706;SDS011;52423;43.512;5.220;2022-10-30T01:32:11;4.78;;;2.25;;
65706;SDS011;52423;43.512;5.220;2022-10-30T01:34:54;4.13;;;2.15;;
65706;SDS011;52423;43.512;5.220;2022-10-30T01:37:24;6.50;;;2.72;;
65706;SDS011;52423;43.512;5.220;2022-10-30T01:39:55;3.70;;;2.15;;
65706;SDS011;52423;43.512;5.220;2022-10-30T01:45:05;3.42;;;2.50;;
65706;SDS011;52423;43.512;5.220;2022-10-30T01:47:37;8.63;;;2.70;;
65706;SDS011;52423;43.512;5.220;2022-10-30T01:50:36;8.20;;;2.53;;
65706;SDS011;52423;43.512;5.220;2022-10-30T01:53:13;5.22;;;2.78;;
65706;SDS011;52423;43.512;5.220;2022-10-30T01:58:43;3.08;;;2.35;;
65706;SDS011;52423;43.512;5.220;2022-10-30T02:01:18;10.75;;;2.15;;
65706;SDS011;52423;43.512;5.220;2022-10-30T02:03:45;3.67;;;2.47;;
65706;SDS011;52423;43.512;5.220;2022-10-30T02:06:10;6.10;;;2.35;;
65706;SDS011;52423;43.512;5.220;2022-10-30T02:08:36;6.57;;;2.65;;
65706;SDS011;52423;43.512;5.220;2022-10-30T02:11:01;5.78;;;2.33;;
65706;SDS011;52423;43.512;5.220;2022-10-30T02:13:27;3.13;;;2.22;;
65706;SDS011;52423;43.512;5.220;2022-10-30T02:15:53;5.47;;;2.35;;
65706;SDS011;52423;43.512;5.220;2022-10-30T02:18:19;4.82;;;2.22;;
65706;SDS011;52423;43.512;5.220;2022-10-30T02:20:44;6.65;;;2.25;;
65706;SDS011;52423;43.512;5.220;2022-10-30T02:23:10;4.85;;;2.05;;
65706;SDS011;52423;43.512;5.220;2022-10-30T02:25:42;5.88;;;2.20;;
65706;SDS011;52423;43.512;5.220;2022-10-30T02:28:08;5.75;;;2.50;;
65706;SDS011;52423;43.512;5.220;2022-10-30T02:30:33;5.20;;;2.20;;
65706;SDS011;52423;43.512;5.220;2022-10-30T02:32:59;4.68;;;2.40;;
65706;SDS011;52423;43.512;5.220;2022-10-30T02:35:24;4.90;;;2.30;;
65706;SDS011;52423;43.512;5.220;2022-10-30T02:37:49;2.83;;;2.10;;
65706;SDS011;52423;43.512;5.220;2022-10-30T02:40:15;7.55;;;2.17;;
65706;SDS011;52423;43.512;5.220;2022-10-30T02:42:40;6.28;;;2.25;;
65706;SDS011;52423;43.512;5.220;2022-10-30T02:45:06;5.60;;;2.05;;
65706;SDS011;52423;43.512;5.220;2022-10-30T02:47:32;3.72;;;2.38;;
65706;SDS011;52423;43.512;5.220;2022-10-30T02:49:57;8.85;;;2.33;;
65706;SDS011;52423;43.512;5.220;2022-10-30T02:52:23;4.70;;;2.25;;
65706;SDS011;52423;43.512;5.220;2022-10-30T02:54:48;4.25;;;1.90;;
65706;SDS011;52423;43.512;5.220;2022-10-30T02:57:14;3.60;;;2.40;;
65706;SDS011;52423;43.512;5.220;2022-10-30T02:59:39;4.22;;;2.20;;
65706;SDS011;52423;43.512;5.220;2022-10-30T03:02:04;3.88;;;2.13;;
65706;SDS011;52423;43.512;5.220;2022-10-30T03:04:30;7.45;;;2.20;;
65706;SDS011;52423;43.512;5.220;2022-10-30T03:06:55;3.45;;;2.13;;
65706;SDS011;52423;43.512;5.220;2022-10-30T03:09:20;3.15;;;2.65;;
65706;SDS011;52423;43.512;5.220;2022-10-30T03:11:46;3.72;;;2.47;;
65706;SDS011;52423;43.512;5.220;2022-10-30T03:14:11;4.75;;;2.67;;
65706;SDS011;52423;43.512;5.220;2022-10-30T03:16:37;3.08;;;2.22;;
65706;SDS011;52423;43.512;5.220;2022-10-30T03:19:03;10.75;;;2.40;;
65706;SDS011;52423;43.512;5.220;2022-10-30T03:21:29;2.60;;;2.30;;
65706;SDS011;52423;43.512;5.220;2022-10-30T03:23:54;2.58;;;2.28;;
65706;SDS011;52423;43.512;5.220;2022-10-30T03:26:20;8.43;;;3.13;;
65706;SDS011;52423;43.512;5.220;2022-10-30T03:28:46;7.60;;;2.92;;
65706;SDS011;52423;43.512;5.220;2022-10-30T03:31:12;2.53;;;2.30;;
65706;SDS011;52423;43.512;5.220;2022-10-30T03:33:39;4.75;;;2.47;;
65706;SDS011;52423;43.512;5.220;2022-10-30T03:36:05;4.28;;;2.38;;
65706;SDS011;52423;43.512;5.220;2022-10-30T03:38:32;4.68;;;2.40;;
65706;SDS011;52423;43.512;5.220;2022-10-30T03:40:57;7.40;;;3.10;;
65706;SDS011;52423;43.512;5.220;2022-10-30T03:43:23;6.05;;;2.60;;
65706;SDS011;52423;43.512;5.220;2022-10-30T03:45:49;8.15;;;2.45;;
65706;SDS011;52423;43.512;5.220;2022-10-30T03:48:16;5.38;;;2.45;;
65706;SDS011;52423;43.512;5.220;2022-10-30T03:50:43;6.68;;;2.30;;
65706;SDS011;52423;43.512;5.220;2022-10-30T03:53:09;4.25;;;2.10;;
65706;SDS011;52423;43.512;5.220;2022-10-30T03:55:35;5.45;;;2.40;;
65706;SDS011;52423;43.512;5.220;2022-10-30T03:58:00;3.00;;;1.95;;
65706;SDS011;52423;43.512;5.220;2022-10-30T04:00:26;2.13;;;1.92;;
65706;SDS011;52423;43.512;5.220;2022-10-30T04:02:51;5.07;;;2.25;;
65706;SDS011;52423;43.512;5.220;2022-10-30T04:05:17;4.50;;;2.03;;
65706;SDS011;52423;43.512;5.220;2022-10-30T04:07:45;5.10;;;2.20;;
65706;SDS011;52423;43.512;5.220;2022-10-30T04:10:11;7.40;;;1.85;;
65706;SDS011;52423;43.512;5.220;2022-10-30T04:12:37;4.05;;;2.20;;
65706;SDS011;52423;43.512;5.220;2022-10-30T04:15:03;5.35;;;1.90;;
65706;SDS011;52423;43.512;5.220;2022-10-30T04:17:29;6.55;;;1.90;;
65706;SDS011;52423;43.512;5.220;2022-10-30T04:19:55;5.43;;;2.72;;
65706;SDS011;52423;43.512;5.220;2022-10-30T04:22:20;5.03;;;2.00;;
65706;SDS011;52423;43.512;5.220;2022-10-30T04:24:45;5.20;;;2.40;;
65706;SDS011;52423;43.512;5.220;2022-10-30T04:27:13;4.80;;;1.75;;
65706;SDS011;52423;43.512;5.220;2022-10-30T04:29:38;5.20;;;2.20;;
65706;SDS011;52423;43.512;5.220;2022-10-30T04:32:06;3.92;;;2.20;;
65706;SDS011;52423;43.512;5.220;2022-10-30T04:34:31;3.92;;;1.90;;
65706;SDS011;52423;43.512;5.220;2022-10-30T04:36:57;5.97;;;1.77;;
65706;SDS011;52423;43.512;5.220;2022-10-30T04:39:22;4.03;;;2.15;;
65706;SDS011;52423;43.512;5.220;2022-10-30T04:41:47;3.78;;;1.75;;
65706;SDS011;52423;43.512;5.220;2022-10-30T04:44:13;9.10;;;2.50;;
65706;SDS011;52423;43.512;5.220;2022-10-30T04:46:38;7.93;;;2.05;;
65706;SDS011;52423;43.512;5.220;2022-10-30T04:49:04;8.45;;;2.00;;
65706;SDS011;52423;43.512;5.220;2022-10-30T04:51:29;5.38;;;2.33;;
65706;SDS011;52423;43.512;5.220;2022-10-30T04:53:54;4.63;;;2.40;;
65706;SDS011;52423;43.512;5.220;2022-10-30T04:56:20;2.97;;;2.00;;
65706;SDS011;52423;43.512;5.220;2022-10-30T04:58:45;3.42;;;1.85;;
65706;SDS011;52423;43.512;5.220;2022-10-30T05:01:11;4.28;;;2.08;;
65706;SDS011;52423;43.512;5.220;2022-10-30T05:03:36;4.25;;;2.10;;
65706;SDS011;52423;43.512;5.220;2022-10-30T05:06:05;4.88;;;2.13;;
65706;SDS011;52423;43.512;5.220;2022-10-30T05:08:37;3.97;;;2.15;;
65706;SDS011;52423;43.512;5.220;2022-10-30T05:11:03;2.92;;;1.85;;
65706;SDS011;52423;43.512;5.220;2022-10-30T05:13:29;3.83;;;2.10;;
65706;SDS011;52423;43.512;5.220;2022-10-30T05:15:54;2.42;;;2.00;;
65706;SDS011;52423;43.512;5.220;2022-10-30T05:18:20;4.00;;;2.05;;
65706;SDS011;52423;43.512;5.220;2022-10-30T05:20:45;6.53;;;1.98;;
65706;SDS011;52423;43.512;5.220;2022-10-30T05:23:11;2.70;;;2.08;;
65706;SDS011;52423;43.512;5.220;2022-10-30T05:25:37;5.05;;;2.33;;
65706;SDS011;52423;43.512;5.220;2022-10-30T05:28:03;6.38;;;2.10;;
65706;SDS011;52423;43.512;5.220;2022-10-30T05:30:30;4.22;;;2.33;;
65706;SDS011;52423;43.512;5.220;2022-10-30T05:33:00;4.57;;;2.00;;
65706;SDS011;52423;43.512;5.220;2022-10-30T05:35:28;5.78;;;1.85;;
65706;SDS011;52423;43.512;5.220;2022-10-30T05:37:56;8.20;;;2.28;;
65706;SDS011;52423;43.512;5.220;2022-10-30T05:40:22;5.18;;;2.10;;
65706;SDS011;52423;43.512;5.220;2022-10-30T05:42:48;5.93;;;1.92;;
65706;SDS011;52423;43.512;5.220;2022-10-30T05:45:14;4.28;;;2.33;;
65706;SDS011;52423;43.512;5.220;2022-10-30T05:47:40;3.28;;;2.17;;
65706;SDS011;52423;43.512;5.220;2022-10-30T05:50:06;5.30;;;2.38;;
65706;SDS011;52423;43.512;5.220;2022-10-30T05:52:32;3.50;;;1.90;;
65706;SDS011;52423;43.512;5.220;2022-10-30T05:54:57;3.65;;;1.58;;
65706;SDS011;52423;43.512;5.220;2022-10-30T05:57:23;5.82;;;2.50;;
65706;SDS011;52423;43.512;5.220;2022-10-30T05:59:48;4.45;;;1.90;;
65706;SDS011;52423;43.512;5.220;2022-10-30T06:02:15;4.35;;;1.67;;
65706;SDS011;52423;43.512;5.220;2022-10-30T06:04:41;3.67;;;1.75;;
65706;SDS011;52423;43.512;5.220;2022-10-30T06:07:06;2.17;;;1.75;;
65706;SDS011;52423;43.512;5.220;2022-10-30T06:09:31;5.03;;;2.00;;
65706;SDS011;52423;43.512;5.220;2022-10-30T06:11:57;8.48;;;1.67;;
65706;SDS011;52423;43.512;5.220;2022-10-30T06:14:22;1.92;;;1.73;;
65706;SDS011;52423;43.512;5.220;2022-10-30T06:16:48;5.45;;;1.80;;
65706;SDS011;52423;43.512;5.220;2022-10-30T06:19:13;5.45;;;1.77;;
65706;SDS011;52423;43.512;5.220;2022-10-30T06:21:39;3.22;;;1.58;;
65706;SDS011;52423;43.512;5.220;2022-10-30T06:24:04;3.85;;;1.65;;
65706;SDS011;52423;43.512;5.220;2022-10-30T06:26:30;2.10;;;1.60;;
65706;SDS011;52423;43.512;5.220;2022-10-30T06:28:55;3.08;;;1.63;;
65706;SDS011;52423;43.512;5.220;2022-10-30T06:31:20;3.05;;;1.52;;
65706;SDS011;52423;43.512;5.220;2022-10-30T06:33:46;5.63;;;1.90;;
65706;SDS011;52423;43.512;5.220;2022-10-30T06:36:11;3.47;;;1.90;;
65706;SDS011;52423;43.512;5.220;2022-10-30T06:38:36;1.75;;;1.63;;
65706;SDS011;52423;43.512;5.220;2022-10-30T06:41:02;3.83;;;1.98;;
65706;SDS011;52423;43.512;5.220;2022-10-30T06:43:27;2.03;;;1.88;;
65706;SDS011;52423;43.512;5.220;2022-10-30T06:45:52;7.70;;;1.90;;
65706;SDS011;52423;43.512;5.220;2022-10-30T06:48:18;6.13;;;1.85;;
65706;SDS011;52423;43.512;5.220;2022-10-30T06:50:43;5.05;;;1.85;;
65706;SDS011;52423;43.512;5.220;2022-10-30T06:53:10;11.35;;;1.70;;
65706;SDS011;52423;43.512;5.220;2022-10-30T06:55:35;3.97;;;2.13;;
65706;SDS011;52423;43.512;5.220;2022-10-30T06:58:00;6.07;;;2.15;;
65706;SDS011;52423;43.512;5.220;2022-10-30T07:00:26;4.70;;;2.92;;
65706;SDS011;52423;43.512;5.220;2022-10-30T07:02:55;3.15;;;2.00;;
65706;SDS011;52423;43.512;5.220;2022-10-30T07:05:23;4.65;;;1.80;;
65706;SDS011;52423;43.512;5.220;2022-10-30T07:07:49;7.97;;;2.10;;
65706;SDS011;52423;43.512;5.220;2022-10-30T07:10:14;4.45;;;1.70;;
65706;SDS011;52423;43.512;5.220;2022-10-30T07:12:40;6.85;;;1.90;;
65706;SDS011;52423;43.512;5.220;2022-10-30T07:15:05;5.43;;;1.73;;
65706;SDS011;52423;43.512;5.220;2022-10-30T07:17:31;2.63;;;2.15;;
65706;SDS011;52423;43.512;5.220;2022-10-30T07:19:56;3.05;;;1.80;;
65706;SDS011;52423;43.512;5.220;2022-10-30T07:22:21;7.40;;;2.40;;
65706;SDS011;52423;43.512;5.220;2022-10-30T07:24:47;5.80;;;2.63;;
65706;SDS011;52423;43.512;5.220;2022-10-30T07:27:12;5.80;;;2.83;;
65706;SDS011;52423;43.512;5.220;2022-10-30T07:29:37;11.98;;;3.20;;
65706;SDS011;52423;43.512;5.220;2022-10-30T07:32:03;4.57;;;2.97;;
65706;SDS011;52423;43.512;5.220;2022-10-30T07:34:29;9.43;;;2.50;;
65706;SDS011;52423;43.512;5.220;2022-10-30T07:36:54;10.70;;;2.45;;
65706;SDS011;52423;43.512;5.220;2022-10-30T07:39:20;4.68;;;2.50;;
65706;SDS011;52423;43.512;5.220;2022-10-30T07:41:47;6.18;;;2.75;;
65706;SDS011;52423;43.512;5.220;2022-10-30T07:44:13;7.10;;;2.72;;
65706;SDS011;52423;43.512;5.220;2022-10-30T07:46:38;11.27;;;2.63;;
65706;SDS011;52423;43.512;5.220;2022-10-30T07:49:03;9.25;;;3.95;;
65706;SDS011;52423;43.512;5.220;2022-10-30T07:51:29;6.07;;;3.17;;
65706;SDS011;52423;43.512;5.220;2022-10-30T07:53:54;5.32;;;3.15;;
65706;SDS011;52423;43.512;5.220;2022-10-30T07:56:20;9.25;;;2.90;;
65706;SDS011;52423;43.512;5.220;2022-10-30T07:58:45;6.47;;;3.00;;
65706;SDS011;52423;43.512;5.220;2022-10-30T08:01:10;5.40;;;2.47;;
65706;SDS011;52423;43.512;5.220;2022-10-30T08:03:36;5.85;;;2.58;;
65706;SDS011;52423;43.512;5.220;2022-10-30T08:06:01;5.72;;;2.50;;
65706;SDS011;52423;43.512;5.220;2022-10-30T08:08:26;4.55;;;2.30;;
65706;SDS011;52423;43.512;5.220;2022-10-30T08:10:52;9.20;;;2.63;;
65706;SDS011;52423;43.512;5.220;2022-10-30T08:13:17;4.43;;;2.90;;
65706;SDS011;52423;43.512;5.220;2022-10-30T08:15:42;6.03;;;2.78;;
65706;SDS011;52423;43.512;5.220;2022-10-30T08:18:08;3.85;;;3.10;;
65706;SDS011;52423;43.512;5.220;2022-10-30T08:20:33;5.25;;;2.75;;
65706;SDS011;52423;43.512;5.220;2022-10-30T08:22:59;6.03;;;2.80;;
65706;SDS011;52423;43.512;5.220;2022-10-30T08:25:25;8.65;;;2.95;;
65706;SDS011;52423;43.512;5.220;2022-10-30T08:27:53;8.00;;;2.22;;
65706;SDS011;52423;43.512;5.220;2022-10-30T08:30:24;4.90;;;2.63;;
65706;SDS011;52423;43.512;5.220;2022-10-30T08:32:51;10.50;;;3.70;;
65706;SDS011;52423;43.512;5.220;2022-10-30T08:35:16;6.20;;;2.65;;
65706;SDS011;52423;43.512;5.220;2022-10-30T08:37:42;8.25;;;2.17;;
65706;SDS011;52423;43.512;5.220;2022-10-30T08:40:11;9.45;;;2.40;;
65706;SDS011;52423;43.512;5.220;2022-10-30T08:42:36;6.32;;;2.30;;
65706;SDS011;52423;43.512;5.220;2022-10-30T08:45:02;8.10;;;2.67;;
65706;SDS011;52423;43.512;5.220;2022-10-30T08:47:28;5.80;;;2.70;;
65706;SDS011;52423;43.512;5.220;2022-10-30T08:49:53;9.18;;;2.08;;
65706;SDS011;52423;43.512;5.220;2022-10-30T08:52:19;3.85;;;2.20;;
65706;SDS011;52423;43.512;5.220;2022-10-30T08:54:44;5.20;;;2.30;;
65706;SDS011;52423;43.512;5.220;2022-10-30T08:57:09;3.30;;;2.53;;
65706;SDS011;52423;43.512;5.220;2022-10-30T08:59:35;3.15;;;1.88;;
65706;SDS011;52423;43.512;5.220;2022-10-30T09:02:00;8.00;;;2.20;;
65706;SDS011;52423;43.512;5.220;2022-10-30T09:04:25;5.45;;;2.35;;
65706;SDS011;52423;43.512;5.220;2022-10-30T09:06:51;11.40;;;2.65;;
65706;SDS011;52423;43.512;5.220;2022-10-30T09:09:16;6.57;;;2.08;;
65706;SDS011;52423;43.512;5.220;2022-10-30T09:11:41;9.07;;;2.30;;
65706;SDS011;52423;43.512;5.220;2022-10-30T09:14:07;4.65;;;2.53;;
65706;SDS011;52423;43.512;5.220;2022-10-30T09:16:32;6.15;;;2.45;;
65706;SDS011;52423;43.512;5.220;2022-10-30T09:18:57;7.60;;;2.15;;
65706;SDS011;52423;43.512;5.220;2022-10-30T09:21:23;6.85;;;2.50;;
65706;SDS011;52423;43.512;5.220;2022-10-30T09:23:48;2.88;;;1.83;;
65706;SDS011;52423;43.512;5.220;2022-10-30T09:26:13;5.85;;;1.98;;
65706;SDS011;52423;43.512;5.220;2022-10-30T09:28:39;4.22;;;2.28;;
65706;SDS011;52423;43.512;5.220;2022-10-30T09:31:04;6.55;;;2.25;;
65706;SDS011;52423;43.512;5.220;2022-10-30T09:33:30;4.88;;;2.22;;
65706;SDS011;52423;43.512;5.220;2022-10-30T09:35:55;7.82;;;2.13;;
65706;SDS011;52423;43.512;5.220;2022-10-30T09:38:21;4.13;;;2.15;;
65706;SDS011;52423;43.512;5.220;2022-10-30T09:40:53;6.35;;;2.35;;
65706;SDS011;52423;43.512;5.220;2022-10-30T09:44:04;6.18;;;2.58;;
65706;SDS011;52423;43.512;5.220;2022-10-30T09:52:26;13.02;;;2.50;;
65706;SDS011;52423;43.512;5.220;2022-10-30T09:55:11;13.15;;;2.53;;
65706;SDS011;52423;43.512;5.220;2022-10-30T10:00:38;9.20;;;3.35;;
65706;SDS011;52423;43.512;5.220;2022-10-30T10:05:57;15.88;;;3.25;;
65706;SDS011;52423;43.512;5.220;2022-10-30T10:08:36;10.48;;;3.15;;
65706;SDS011;52423;43.512;5.220;2022-10-30T10:11:24;8.98;;;2.95;;
65706;SDS011;52423;43.512;5.220;2022-10-30T10:14:03;16.30;;;3.58;;
65706;SDS011;52423;43.512;5.220;2022-10-30T10:16:34;13.60;;;3.35;;
65706;SDS011;52423;43.512;5.220;2022-10-30T10:21:56;10.20;;;3.30;;
65706;SDS011;52423;43.512;5.220;2022-10-30T10:24:29;10.88;;;3.75;;
65706;SDS011;52423;43.512;5.220;2022-10-30T10:32:16;11.35;;;3.53;;
65706;SDS011;52423;43.512;5.220;2022-10-30T10:43:27;12.30;;;3.42;;
65706;SDS011;52423;43.512;5.220;2022-10-30T10:51:41;11.13;;;3.72;;
65706;SDS011;52423;43.512;5.220;2022-10-30T10:54:17;10.25;;;2.90;;
65706;SDS011;52423;43.512;5.220;2022-10-30T10:56:45;11.88;;;3.38;;
65706;SDS011;52423;43.512;5.220;2022-10-30T11:01:54;12.25;;;3.40;;
65706;SDS011;52423;43.512;5.220;2022-10-30T11:07:23;18.02;;;3.78;;
65706;SDS011;52423;43.512;5.220;2022-10-30T11:09:54;18.13;;;4.07;;
65706;SDS011;52423;43.512;5.220;2022-10-30T11:12:30;20.70;;;4.25;;
65706;SDS011;52423;43.512;5.220;2022-10-30T11:18:00;14.95;;;3.90;;
65706;SDS011;52423;43.512;5.220;2022-10-30T11:20:32;18.92;;;3.97;;
65706;SDS011;52423;43.512;5.220;2022-10-30T11:23:02;15.80;;;4.55;;
65706;SDS011;52423;43.512;5.220;2022-10-30T11:25:34;14.70;;;4.88;;
65706;SDS011;52423;43.512;5.220;2022-10-30T11:28:03;18.13;;;4.95;;
65706;SDS011;52423;43.512;5.220;2022-10-30T11:30:30;17.30;;;4.70;;
65706;SDS011;52423;43.512;5.220;2022-10-30T11:32:56;20.63;;;7.18;;
65706;SDS011;52423;43.512;5.220;2022-10-30T11:35:23;19.23;;;5.43;;
65706;SDS011;52423;43.512;5.220;2022-10-30T11:37:49;20.20;;;5.55;;
65706;SDS011;52423;43.512;5.220;2022-10-30T11:40:20;20.38;;;5.25;;
65706;SDS011;52423;43.512;5.220;2022-10-30T11:45:29;16.88;;;4.63;;
65706;SDS011;52423;43.512;5.220;2022-10-30T11:47:57;12.23;;;4.60;;
65706;SDS011;52423;43.512;5.220;2022-10-30T11:50:27;17.65;;;4.80;;
65706;SDS011;52423;43.512;5.220;2022-10-30T11:52:55;16.83;;;4.68;;
65706;SDS011;52423;43.512;5.220;2022-10-30T11:55:27;24.70;;;5.38;;
65706;SDS011;52423;43.512;5.220;2022-10-30T11:57:59;28.75;;;5.85;;
65706;SDS011;52423;43.512;5.220;2022-10-30T12:00:29;20.15;;;5.82;;
65706;SDS011;52423;43.512;5.220;2022-10-30T12:02:57;13.70;;;4.97;;
65706;SDS011;52423;43.512;5.220;2022-10-30T12:05:37;23.35;;;5.82;;
65706;SDS011;52423;43.512;5.220;2022-10-30T12:10:34;27.35;;;5.50;;
65706;SDS011;52423;43.512;5.220;2022-10-30T12:13:16;17.70;;;5.55;;
65706;SDS011;52423;43.512;5.220;2022-10-30T12:15:44;26.00;;;6.38;;
65706;SDS011;52423;43.512;5.220;2022-10-30T12:18:18;19.80;;;5.05;;
65706;SDS011;52423;43.512;5.220;2022-10-30T12:20:47;16.73;;;5.60;;
65706;SDS011;52423;43.512;5.220;2022-10-30T12:23:17;22.77;;;5.53;;
65706;SDS011;52423;43.512;5.220;2022-10-30T12:25:46;27.10;;;6.20;;
65706;SDS011;52423;43.512;5.220;2022-10-30T12:28:13;24.58;;;6.13;;
65706;SDS011;52423;43.512;5.220;2022-10-30T12:30:45;17.83;;;6.05;;
65706;SDS011;52423;43.512;5.220;2022-10-30T12:33:37;20.52;;;5.22;;
65706;SDS011;52423;43.512;5.220;2022-10-30T12:36:05;18.15;;;5.53;;
65706;SDS011;52423;43.512;5.220;2022-10-30T12:38:46;19.35;;;6.15;;
65706;SDS011;52423;43.512;5.220;2022-10-30T12:41:29;18.30;;;4.97;;
65706;SDS011;52423;43.512;5.220;2022-10-30T12:44:08;19.00;;;5.00;;
65706;SDS011;52423;43.512;5.220;2022-10-30T12:46:46;16.30;;;5.18;;
65706;SDS011;52423;43.512;5.220;2022-10-30T12:52:16;21.88;;;5.60;;
65706;SDS011;52423;43.512;5.220;2022-10-30T12:57:26;18.98;;;5.28;;
65706;SDS011;52423;43.512;5.220;2022-10-30T13:00:00;19.08;;;5.20;;
65706;SDS011;52423;43.512;5.220;2022-10-30T13:02:58;13.52;;;5.25;;
65706;SDS011;52423;43.512;5.220;2022-10-30T13:05:27;13.98;;;5.32;;
65706;SDS011;52423;43.512;5.220;2022-10-30T13:08:13;21.73;;;5.20;;
65706;SDS011;52423;43.512;5.220;2022-10-30T13:10:48;19.10;;;5.78;;
65706;SDS011;52423;43.512;5.220;2022-10-30T13:15:59;13.57;;;5.40;;
65706;SDS011;52423;43.512;5.220;2022-10-30T13:18:27;26.60;;;5.75;;
65706;SDS011;52423;43.512;5.220;2022-10-30T13:32:33;16.58;;;5.13;;
65706;SDS011;52423;43.512;5.220;2022-10-30T13:52:00;15.45;;;5.55;;
65706;SDS011;52423;43.512;5.220;2022-10-30T14:05:03;21.95;;;6.68;;
65706;SDS011;52423;43.512;5.220;2022-10-30T14:10:39;21.67;;;6.07;;
65706;SDS011;52423;43.512;5.220;2022-10-30T14:15:51;16.13;;;5.85;;
65706;SDS011;52423;43.512;5.220;2022-10-30T14:18:42;26.80;;;5.72;;
65706;SDS011;52423;43.512;5.220;2022-10-30T14:24:00;17.33;;;6.10;;
65706;SDS011;52423;43.512;5.220;2022-10-30T14:26:28;15.73;;;5.30;;
65706;SDS011;52423;43.512;5.220;2022-10-30T14:28:53;24.25;;;6.40;;
65706;SDS011;52423;43.512;5.220;2022-10-30T14:31:31;18.00;;;5.75;;
65706;SDS011;52423;43.512;5.220;2022-10-30T14:33:57;26.00;;;6.15;;
65706;SDS011;52423;43.512;5.220;2022-10-30T14:41:36;27.38;;;6.85;;
65706;SDS011;52423;43.512;5.220;2022-10-30T14:44:22;18.23;;;5.57;;
65706;SDS011;52423;43.512;5.220;2022-10-30T14:50:03;17.10;;;5.97;;
65706;SDS011;52423;43.512;5.220;2022-10-30T14:52:36;27.27;;;5.85;;
65706;SDS011;52423;43.512;5.220;2022-10-30T14:55:18;21.13;;;5.72;;
65706;SDS011;52423;43.512;5.220;2022-10-30T15:03:09;13.82;;;5.85;;
65706;SDS011;52423;43.512;5.220;2022-10-30T15:08:39;25.58;;;5.78;;
65706;SDS011;52423;43.512;5.220;2022-10-30T15:13:47;19.58;;;5.70;;
65706;SDS011;52423;43.512;5.220;2022-10-30T15:16:17;26.20;;;6.22;;
65706;SDS011;52423;43.512;5.220;2022-10-30T15:18:48;23.42;;;6.10;;
65706;SDS011;52423;43.512;5.220;2022-10-30T15:21:28;20.13;;;5.63;;
65706;SDS011;52423;43.512;5.220;2022-10-30T15:23:57;21.08;;;5.97;;
65706;SDS011;52423;43.512;5.220;2022-10-30T15:26:27;19.27;;;5.93;;
65706;SDS011;52423;43.512;5.220;2022-10-30T15:31:23;21.20;;;5.88;;
65706;SDS011;52423;43.512;5.220;2022-10-30T15:33:50;20.95;;;6.60;;
65706;SDS011;52423;43.512;5.220;2022-10-30T15:36:19;26.75;;;6.57;;
65706;SDS011;52423;43.512;5.220;2022-10-30T15:41:28;19.85;;;6.85;;
65706;SDS011;52423;43.512;5.220;2022-10-30T15:43:54;24.23;;;6.90;;
65706;SDS011;52423;43.512;5.220;2022-10-30T15:46:19;20.90;;;6.78;;
65706;SDS011;52423;43.512;5.220;2022-10-30T15:48:45;23.08;;;5.88;;
65706;SDS011;52423;43.512;5.220;2022-10-30T15:51:16;31.20;;;7.18;;
65706;SDS011;52423;43.512;5.220;2022-10-30T15:53:47;21.65;;;6.60;;
65706;SDS011;52423;43.512;5.220;2022-10-30T15:59:02;27.90;;;7.15;;
65706;SDS011;52423;43.512;5.220;2022-10-30T16:01:30;24.20;;;6.70;;
65706;SDS011;52423;43.512;5.220;2022-10-30T16:03:57;22.83;;;6.63;;
65706;SDS011;52423;43.512;5.220;2022-10-30T16:06:24;20.10;;;6.65;;
65706;SDS011;52423;43.512;5.220;2022-10-30T16:08:53;23.63;;;6.70;;
65706;SDS011;52423;43.512;5.220;2022-10-30T16:11:19;35.22;;;7.18;;
65706;SDS011;52423;43.512;5.220;2022-10-30T16:13:46;25.15;;;6.55;;
65706;SDS011;52423;43.512;5.220;2022-10-30T16:18:46;27.30;;;6.57;;
65706;SDS011;52423;43.512;5.220;2022-10-30T16:21:14;19.98;;;6.22;;
65706;SDS011;52423;43.512;5.220;2022-10-30T16:23:45;21.65;;;6.00;;
65706;SDS011;52423;43.512;5.220;2022-10-30T16:26:23;21.27;;;6.47;;
65706;SDS011;52423;43.512;5.220;2022-10-30T16:28:51;23.02;;;7.30;;
65706;SDS011;52423;43.512;5.220;2022-10-30T16:31:16;28.88;;;6.72;;
65706;SDS011;52423;43.512;5.220;2022-10-30T16:33:44;30.45;;;7.70;;
65706;SDS011;52423;43.512;5.220;2022-10-30T16:36:11;20.92;;;8.13;;
65706;SDS011;52423;43.512;5.220;2022-10-30T16:38:40;26.85;;;9.05;;
65706;SDS011;52423;43.512;5.220;2022-10-30T16:41:07;63.25;;;14.30;;
65706;SDS011;52423;43.512;5.220;2022-10-30T16:43:37;73.22;;;18.48;;
65706;SDS011;52423;43.512;5.220;2022-10-30T16:48:38;49.60;;;12.93;;
65706;SDS011;52423;43.512;5.220;2022-10-30T16:51:11;55.17;;;13.02;;
65706;SDS011;52423;43.512;5.220;2022-10-30T16:53:39;64.55;;;19.77;;
65706;SDS011;52423;43.512;5.220;2022-10-30T16:56:13;40.80;;;14.43;;
65706;SDS011;52423;43.512;5.220;2022-10-30T16:58:45;64.72;;;24.20;;
65706;SDS011;52423;43.512;5.220;2022-10-30T17:01:10;65.38;;;19.95;;
65706;SDS011;52423;43.512;5.220;2022-10-30T17:03:37;62.33;;;21.63;;
65706;SDS011;52423;43.512;5.220;2022-10-30T17:06:06;58.85;;;17.15;;
65706;SDS011;52423;43.512;5.220;2022-10-30T17:08:48;38.08;;;12.27;;
65706;SDS011;52423;43.512;5.220;2022-10-30T17:11:18;33.78;;;13.00;;
65706;SDS011;52423;43.512;5.220;2022-10-30T17:13:57;35.53;;;11.98;;
65706;SDS011;52423;43.512;5.220;2022-10-30T17:16:33;37.95;;;12.45;;
65706;SDS011;52423;43.512;5.220;2022-10-30T17:21:54;24.80;;;9.05;;
65706;SDS011;52423;43.512;5.220;2022-10-30T17:26:56;30.08;;;7.80;;